KSUS/SUS METAR and TAF weather

Enter ICAO airport designator
Station Type Date Time Source
KSUS METAR 2019/10/14 05:44 UTC NOAA

KSUS 140544Z AUTO 00000KT 1 3/4SM BR CLR 06/05 A3002 RMK AO2 T00610050


Station Type Date Time Source
KSUS Decoded METAR 2019/10/14 05:44 UTC NOAA

SPIRIT OF ST. LOUIS AIRPORT , MO, United States (KSUS) 38-39N 090-39W 141M
Oct 14, 2019 - 01:44 AM EDT / 2019.10.14 0544 UTC
Wind: Calm:0
Visibility: 1 3/4 mile(s):0
Sky conditions: clear
Weather: mist
Temperature: 43.0 F (6.1 C)
Dew Point: 41.0 F (5.0 C)
Relative Humidity: 92%
Pressure (altimeter): 30.02 in. Hg (1016 hPa)
ob: KSUS 140544Z AUTO 00000KT 1 3/4SM BR CLR 06/05 A3002 RMK AO2 T00610050
cycle: 5

Station Type Date Time Source
KSUS TAF 2019/10/14 06:21 UTC NOAA

TAF KSUS 140520Z 1406/1506 VRB04KT P6SM SKC

Example: see airport list